createdAt,value
2023-05-08T00:00:00.570Z,72.6
2023-05-08T00:01:00.566Z,72.6
2023-05-08T00:02:00.556Z,72.6
2023-05-08T00:03:00.748Z,72.7
2023-05-08T00:04:00.706Z,72.5
2023-05-08T00:05:00.728Z,72.4
2023-05-08T00:06:03.951Z,72.3
2023-05-08T00:07:00.552Z,72.4
2023-05-08T00:08:00.594Z,72.3
2023-05-08T00:09:00.572Z,72.4
2023-05-08T00:10:00.600Z,72.4
2023-05-08T00:11:00.547Z,72.4
2023-05-08T00:12:00.679Z,72.4
2023-05-08T00:13:00.651Z,72.5
2023-05-08T00:14:00.602Z,72.5
2023-05-08T00:15:01.115Z,72.3
2023-05-08T00:16:00.588Z,72.2
2023-05-08T00:17:00.696Z,72.3
2023-05-08T00:18:00.606Z,72.3
2023-05-08T00:19:00.581Z,72.4
2023-05-08T00:20:00.607Z,72.4
2023-05-08T00:21:00.572Z,72.5
2023-05-08T00:22:00.556Z,72.4
2023-05-08T00:23:00.536Z,72.5
2023-05-08T00:24:00.566Z,72.5
2023-05-08T00:25:00.711Z,72.4
2023-05-08T00:26:00.547Z,72.3
2023-05-08T00:27:00.563Z,72.1
2023-05-08T00:28:00.720Z,72.3
2023-05-08T00:29:00.545Z,72.2
2023-05-08T00:30:00.612Z,72.2
2023-05-08T00:31:00.589Z,72.3
2023-05-08T00:32:00.580Z,72.4
2023-05-08T00:33:00.626Z,72.4
2023-05-08T00:34:00.549Z,72.3
2023-05-08T00:35:00.558Z,72.1
2023-05-08T00:36:01.088Z,72.1
2023-05-08T00:37:00.620Z,72.0
2023-05-08T00:38:00.555Z,72.1
2023-05-08T00:39:00.550Z,72.2
2023-05-08T00:40:00.557Z,72.2
2023-05-08T00:41:00.660Z,72.3
2023-05-08T00:42:00.597Z,72.2
2023-05-08T00:43:00.575Z,72.3
2023-05-08T00:44:00.570Z,72.3
2023-05-08T00:45:00.589Z,72.1
2023-05-08T00:46:00.706Z,72.1
2023-05-08T00:47:00.855Z,72.2
2023-05-08T00:48:00.739Z,72.1
2023-05-08T00:49:00.673Z,72.2
2023-05-08T00:50:01.066Z,72.2
2023-05-08T00:51:02.043Z,72.2
2023-05-08T00:52:01.741Z,72.2
2023-05-08T00:53:01.558Z,72.3
2023-05-08T00:54:00.603Z,72.4
2023-05-08T00:55:01.331Z,72.2
2023-05-08T00:56:00.621Z,72.4
2023-05-08T00:57:01.260Z,72.5
2023-05-08T00:58:00.828Z,72.6
2023-05-08T00:59:00.609Z,72.8
2023-05-08T01:00:01.771Z,72.8
2023-05-08T01:01:00.846Z,72.8
2023-05-08T01:02:00.849Z,72.8
2023-05-08T01:03:00.909Z,72.8
2023-05-08T01:04:01.500Z,72.8
2023-05-08T01:05:01.818Z,72.6
2023-05-08T01:06:02.261Z,72.5
2023-05-08T01:07:01.053Z,72.5
2023-05-08T01:08:00.588Z,72.5
2023-05-08T01:09:00.663Z,72.6
2023-05-08T01:10:00.613Z,72.6
2023-05-08T01:11:05.223Z,72.6
2023-05-08T01:12:10.475Z,72.6
2023-05-08T01:13:10.483Z,72.6
2023-05-08T01:14:00.546Z,72.5
2023-05-08T01:15:07.983Z,72.4
2023-05-08T01:16:06.773Z,72.2
2023-05-08T01:17:03.984Z,72.2
2023-05-08T01:18:10.369Z,72.2
2023-05-08T01:19:06.310Z,72.3
2023-05-08T01:20:08.756Z,72.3
2023-05-08T01:21:10.451Z,72.2
2023-05-08T01:22:10.437Z,72.3
2023-05-08T01:23:10.468Z,72.3
2023-05-08T01:24:10.447Z,72.3
2023-05-08T01:25:10.462Z,72.1
2023-05-08T01:26:10.481Z,72.1
2023-05-08T01:27:10.530Z,72.0
2023-05-08T01:28:07.940Z,72.1
2023-05-08T01:29:10.461Z,72.1
2023-05-08T01:30:10.628Z,72.1
2023-05-08T01:31:00.554Z,72.1
2023-05-08T01:32:10.450Z,72.1
2023-05-08T01:33:07.051Z,72.0
2023-05-08T01:34:10.496Z,72.0
2023-05-08T01:35:10.466Z,71.9
2023-05-08T01:36:10.476Z,71.8
2023-05-08T01:37:01.602Z,71.8
2023-05-08T01:38:10.455Z,71.8
2023-05-08T01:39:00.539Z,71.8
2023-05-08T01:40:10.954Z,71.9
2023-05-08T01:41:00.588Z,71.9
2023-05-08T01:42:01.596Z,71.9
2023-05-08T01:43:10.466Z,71.9
2023-05-08T01:44:08.188Z,71.8
2023-05-08T01:45:02.290Z,71.7
2023-05-08T01:46:04.353Z,71.6
2023-05-08T01:47:03.788Z,71.5
2023-05-08T01:48:09.421Z,71.5
2023-05-08T01:49:05.706Z,71.6
2023-05-08T01:50:04.029Z,71.6
2023-05-08T01:51:10.449Z,71.6
2023-05-08T01:52:06.334Z,71.5
2023-05-08T01:53:04.470Z,71.4
2023-05-08T01:54:03.759Z,71.5
2023-05-08T01:55:03.062Z,71.4
2023-05-08T01:56:04.339Z,71.3
2023-05-08T01:57:00.764Z,71.3
2023-05-08T01:58:03.191Z,71.4
2023-05-08T01:59:01.504Z,71.4
2023-05-08T02:00:01.730Z,71.4
2023-05-08T02:01:00.648Z,71.4
2023-05-08T02:02:01.456Z,71.4
2023-05-08T02:03:01.139Z,71.5
2023-05-08T02:04:01.964Z,71.5
2023-05-08T02:05:03.088Z,71.3
2023-05-08T02:06:01.252Z,71.2
2023-05-08T02:07:01.357Z,71.2
2023-05-08T02:08:01.136Z,71.2
2023-05-08T02:09:01.189Z,71.2
2023-05-08T02:10:02.064Z,71.2
2023-05-08T02:11:00.756Z,71.3
2023-05-08T02:12:01.172Z,71.3
2023-05-08T02:13:01.388Z,71.2
2023-05-08T02:14:01.624Z,71.2
2023-05-08T02:15:01.682Z,71.1
2023-05-08T02:16:01.370Z,71.0
2023-05-08T02:17:00.992Z,70.9
2023-05-08T02:18:01.197Z,70.9
2023-05-08T02:19:01.824Z,71.0
2023-05-08T02:20:01.707Z,71.0
2023-05-08T02:21:02.819Z,70.9
2023-05-08T02:22:01.812Z,70.9
2023-05-08T02:23:01.244Z,70.8
2023-05-08T02:24:01.918Z,70.8
2023-05-08T02:25:00.644Z,70.6
2023-05-08T02:26:02.689Z,70.5
2023-05-08T02:27:01.000Z,70.4
2023-05-08T02:28:01.238Z,70.4
2023-05-08T02:29:02.259Z,70.4
2023-05-08T02:30:00.921Z,70.4
2023-05-08T02:31:00.663Z,70.3
2023-05-08T02:32:01.066Z,70.3
2023-05-08T02:33:02.615Z,70.3
2023-05-08T02:34:02.385Z,70.2
2023-05-08T02:35:03.589Z,70.1
2023-05-08T02:36:01.417Z,70.0
2023-05-08T02:37:00.984Z,69.9
2023-05-08T02:38:01.130Z,69.9
2023-05-08T02:39:01.759Z,69.9
2023-05-08T02:40:02.813Z,69.9
2023-05-08T02:41:03.536Z,69.8
2023-05-08T02:42:00.630Z,69.8
2023-05-08T02:43:00.586Z,69.8
2023-05-08T02:44:00.576Z,69.8
2023-05-08T02:45:01.745Z,69.7
2023-05-08T02:46:04.193Z,69.6
2023-05-08T02:47:05.675Z,69.6
2023-05-08T02:48:08.096Z,69.6
2023-05-08T02:49:10.453Z,69.6
2023-05-08T02:50:03.392Z,69.6
2023-05-08T02:51:03.928Z,69.6
2023-05-08T02:52:00.566Z,69.6
2023-05-08T02:53:02.945Z,69.6
2023-05-08T02:54:03.937Z,69.6
2023-05-08T02:55:03.707Z,69.5
2023-05-08T02:56:05.957Z,69.4
2023-05-08T02:57:10.445Z,69.4
2023-05-08T02:58:10.447Z,69.5
2023-05-08T02:59:10.430Z,69.5
2023-05-08T03:00:10.624Z,69.6
2023-05-08T03:01:03.306Z,69.6
2023-05-08T03:02:10.456Z,69.6
2023-05-08T03:03:10.520Z,69.6
2023-05-08T03:04:06.817Z,69.6
2023-05-08T03:05:10.097Z,69.5
2023-05-08T03:06:01.687Z,69.4
2023-05-08T03:07:01.412Z,69.3
2023-05-08T03:08:03.990Z,69.3
2023-05-08T03:09:01.804Z,69.2
2023-05-08T03:10:03.390Z,69.2
2023-05-08T03:11:03.120Z,69.1
2023-05-08T03:12:03.870Z,69.1
2023-05-08T03:13:05.463Z,69.1
2023-05-08T03:14:01.491Z,69.2
2023-05-08T03:15:06.549Z,69.2
2023-05-08T03:16:02.507Z,69.1
2023-05-08T03:17:02.126Z,69.1
2023-05-08T03:18:05.494Z,69.1
2023-05-08T03:19:02.683Z,69.1
2023-05-08T03:20:03.336Z,69.2
2023-05-08T03:21:00.868Z,69.3
2023-05-08T03:22:01.839Z,69.5
2023-05-08T03:23:02.016Z,69.6
2023-05-08T03:24:02.162Z,69.7
2023-05-08T03:25:01.764Z,69.8
2023-05-08T03:26:02.026Z,69.7
2023-05-08T03:27:02.164Z,69.8
2023-05-08T03:28:02.815Z,69.8
2023-05-08T03:29:01.077Z,69.9
2023-05-08T03:30:00.986Z,70.1
2023-05-08T03:31:00.920Z,70.0
2023-05-08T03:32:01.124Z,70.1
2023-05-08T03:33:02.157Z,69.9
2023-05-08T03:34:01.363Z,69.9
2023-05-08T03:35:01.351Z,69.8
2023-05-08T03:36:00.869Z,69.9
2023-05-08T03:37:00.704Z,69.9
2023-05-08T03:38:00.854Z,69.9
2023-05-08T03:39:01.080Z,70.0
2023-05-08T03:40:00.721Z,70.1
2023-05-08T03:41:00.817Z,70.3
2023-05-08T03:42:00.665Z,70.4
2023-05-08T03:43:00.753Z,70.4
2023-05-08T03:44:01.584Z,70.5
2023-05-08T03:45:01.844Z,70.6
2023-05-08T03:46:00.942Z,70.7
2023-05-08T03:47:01.388Z,70.7
2023-05-08T03:48:00.743Z,70.8
2023-05-08T03:49:02.937Z,70.8
2023-05-08T03:50:00.771Z,71.0
2023-05-08T03:51:01.091Z,71.1
2023-05-08T03:52:01.460Z,71.2
2023-05-08T03:53:00.804Z,71.3
2023-05-08T03:54:00.564Z,71.5
2023-05-08T03:55:00.797Z,71.6
2023-05-08T03:56:01.006Z,71.6
2023-05-08T03:57:00.787Z,71.6
2023-05-08T03:58:00.634Z,71.7
2023-05-08T03:59:08.800Z,71.7
2023-05-08T04:00:02.995Z,71.6
2023-05-08T04:01:10.460Z,71.6
2023-05-08T04:02:10.513Z,71.6
2023-05-08T04:03:10.543Z,71.6
2023-05-08T04:04:05.195Z,71.6
2023-05-08T04:05:09.332Z,71.5
2023-05-08T04:06:10.459Z,71.5
2023-05-08T04:07:01.606Z,71.5
2023-05-08T04:08:06.868Z,71.5
2023-05-08T04:09:03.353Z,71.5
2023-05-08T04:10:10.689Z,71.4
2023-05-08T04:11:10.457Z,71.3
2023-05-08T04:12:10.478Z,71.3
2023-05-08T04:13:00.681Z,71.3
2023-05-08T04:14:02.684Z,71.3
2023-05-08T04:15:03.773Z,71.4
2023-05-08T04:16:05.407Z,71.2
2023-05-08T04:17:02.298Z,71.3
2023-05-08T04:18:05.469Z,71.4
2023-05-08T04:19:01.347Z,71.5
2023-05-08T04:20:02.316Z,71.5
2023-05-08T04:21:01.688Z,71.4
2023-05-08T04:22:06.944Z,71.6
2023-05-08T04:23:01.180Z,71.6
2023-05-08T04:24:02.105Z,71.6
2023-05-08T04:25:02.746Z,71.4
2023-05-08T04:26:01.723Z,71.4
2023-05-08T04:27:01.298Z,71.5
2023-05-08T04:28:00.855Z,71.5
2023-05-08T04:29:01.051Z,71.5
2023-05-08T04:30:01.073Z,71.4
2023-05-08T04:31:01.736Z,71.3
2023-05-08T04:32:00.655Z,71.1
2023-05-08T04:33:02.868Z,71.0
2023-05-08T04:34:01.598Z,70.8
2023-05-08T04:35:01.083Z,70.6
2023-05-08T04:36:01.479Z,70.4
2023-05-08T04:37:00.591Z,70.1
2023-05-08T04:38:01.111Z,69.9
2023-05-08T04:39:00.609Z,69.6
2023-05-08T04:40:00.757Z,69.3
2023-05-08T04:41:00.672Z,69.4
2023-05-08T04:42:00.622Z,68.9
2023-05-08T04:43:00.760Z,68.7
2023-05-08T04:44:02.183Z,68.8
2023-05-08T04:45:00.616Z,68.8
2023-05-08T04:46:00.850Z,68.7
2023-05-08T04:47:00.590Z,68.5
2023-05-08T04:48:00.640Z,68.4
2023-05-08T04:49:00.589Z,68.3
2023-05-08T04:50:02.782Z,68.1
2023-05-08T04:51:00.590Z,67.7
2023-05-08T04:52:00.604Z,67.7
2023-05-08T04:53:00.587Z,67.9
2023-05-08T04:54:00.623Z,67.9
2023-05-08T04:55:00.710Z,67.9
2023-05-08T04:56:00.588Z,67.6
2023-05-08T04:57:00.895Z,67.3
2023-05-08T04:58:00.594Z,67.3
2023-05-08T04:59:00.653Z,67.3
2023-05-08T05:00:00.634Z,67.1
2023-05-08T05:01:02.306Z,66.8
2023-05-08T05:02:00.724Z,66.8
2023-05-08T05:03:00.667Z,67.0
2023-05-08T05:04:00.647Z,66.9
2023-05-08T05:05:00.597Z,66.6
2023-05-08T05:06:00.696Z,66.5
2023-05-08T05:07:00.630Z,66.5
2023-05-08T05:08:00.725Z,66.4
2023-05-08T05:09:00.590Z,66.3
2023-05-08T05:10:00.638Z,66.0
2023-05-08T05:11:00.650Z,66.0
2023-05-08T05:12:00.571Z,65.9
2023-05-08T05:13:00.647Z,65.9
2023-05-08T05:14:00.575Z,65.8
2023-05-08T05:15:00.614Z,65.9
2023-05-08T05:16:00.635Z,65.5
2023-05-08T05:17:00.603Z,65.6
2023-05-08T05:18:00.609Z,65.5
2023-05-08T05:19:00.717Z,65.5
2023-05-08T05:20:00.631Z,65.3
2023-05-08T05:21:00.574Z,65.4
2023-05-08T05:22:00.579Z,65.4
2023-05-08T05:23:00.563Z,65.3
2023-05-08T05:24:00.592Z,65.4
2023-05-08T05:25:00.842Z,65.5
2023-05-08T05:26:00.561Z,65.5
2023-05-08T05:27:01.072Z,65.6
2023-05-08T05:28:00.578Z,65.8
2023-05-08T05:29:00.622Z,65.9
2023-05-08T05:30:00.613Z,66.0
2023-05-08T05:31:00.727Z,66.0
2023-05-08T05:32:00.782Z,65.9
2023-05-08T05:33:00.638Z,66.0
2023-05-08T05:34:00.628Z,66.0
2023-05-08T05:35:00.618Z,66.1
2023-05-08T05:36:00.648Z,66.0
2023-05-08T05:37:00.638Z,65.9
2023-05-08T05:38:00.564Z,65.8
2023-05-08T05:39:00.571Z,65.7
2023-05-08T05:40:00.730Z,65.8
2023-05-08T05:41:00.633Z,65.7
2023-05-08T05:42:00.561Z,65.6
2023-05-08T05:43:00.748Z,65.5
2023-05-08T05:44:00.691Z,65.2
2023-05-08T05:45:00.570Z,65.3
2023-05-08T05:46:08.282Z,65.1
2023-05-08T05:47:00.702Z,64.4
2023-05-08T05:48:00.801Z,64.6
2023-05-08T05:49:00.599Z,63.6
2023-05-08T05:50:00.557Z,63.7
2023-05-08T05:51:00.922Z,63.5
2023-05-08T05:52:00.690Z,63.0
2023-05-08T05:53:00.586Z,62.3
2023-05-08T05:54:00.591Z,62.6
2023-05-08T05:55:00.613Z,62.3
2023-05-08T05:56:00.598Z,61.9
2023-05-08T05:57:00.597Z,61.4
2023-05-08T05:58:00.575Z,60.3
2023-05-08T05:59:00.581Z,60.9
2023-05-08T06:00:00.675Z,60.6
2023-05-08T06:01:00.565Z,60.6
2023-05-08T06:02:00.689Z,60.4
2023-05-08T06:03:00.898Z,59.7
2023-05-08T06:04:00.641Z,59.2
2023-05-08T06:05:00.618Z,58.9
2023-05-08T06:06:00.608Z,58.0
2023-05-08T06:07:00.578Z,57.1
2023-05-08T06:08:00.587Z,56.9
2023-05-08T06:09:00.604Z,56.1
2023-05-08T06:10:00.849Z,54.9
2023-05-08T06:11:00.578Z,55.0
2023-05-08T06:12:00.595Z,54.2
2023-05-08T06:13:00.602Z,53.5
2023-05-08T06:14:00.656Z,49.6
2023-05-08T06:15:00.568Z,50.2
2023-05-08T06:16:00.578Z,49.4
2023-05-08T06:17:00.598Z,49.2
2023-05-08T06:18:00.621Z,49.0
2023-05-08T06:19:00.595Z,49.0
2023-05-08T06:20:00.598Z,49.8
2023-05-08T06:21:00.609Z,49.5
2023-05-08T06:22:00.578Z,48.2
2023-05-08T06:23:00.584Z,49.1
2023-05-08T06:24:00.580Z,47.4
2023-05-08T06:25:00.650Z,47.9
2023-05-08T06:26:00.608Z,47.8
2023-05-08T06:27:00.584Z,45.5
2023-05-08T06:28:00.635Z,47.0
2023-05-08T06:29:00.605Z,45.5
2023-05-08T06:30:00.808Z,45.2
2023-05-08T06:31:00.644Z,44.5
2023-05-08T06:32:00.605Z,46.0
2023-05-08T06:33:00.733Z,46.3
2023-05-08T06:34:00.620Z,45.3
2023-05-08T06:35:00.625Z,45.1
2023-05-08T06:36:00.654Z,43.8
2023-05-08T06:37:00.626Z,44.5
2023-05-08T06:38:00.588Z,44.2
2023-05-08T06:39:00.736Z,41.5
2023-05-08T06:40:11.730Z,40.6
2023-05-08T06:41:00.609Z,41.3
2023-05-08T06:42:00.657Z,41.0
2023-05-08T06:43:00.639Z,39.8
2023-05-08T06:44:00.547Z,40.9
2023-05-08T06:45:00.614Z,39.3
2023-05-08T06:46:00.723Z,40.0
2023-05-08T06:47:00.737Z,40.0
2023-05-08T06:48:00.599Z,38.9
2023-05-08T06:49:00.646Z,38.9
2023-05-08T06:50:00.716Z,38.1
2023-05-08T06:51:00.592Z,38.8
2023-05-08T06:52:00.603Z,38.6
2023-05-08T06:53:00.640Z,38.4
2023-05-08T06:54:00.682Z,37.0
2023-05-08T06:55:00.579Z,36.0
2023-05-08T06:56:00.596Z,36.9
2023-05-08T06:57:00.608Z,36.7
2023-05-08T06:58:00.777Z,36.8
2023-05-08T06:59:08.599Z,36.7
2023-05-08T07:00:00.579Z,36.2
2023-05-08T07:01:00.658Z,36.6
2023-05-08T07:02:00.697Z,36.2
2023-05-08T07:03:00.670Z,35.4
2023-05-08T07:04:00.627Z,35.0
2023-05-08T07:05:00.640Z,34.2
2023-05-08T07:06:00.584Z,33.8
2023-05-08T07:07:00.683Z,34.5
2023-05-08T07:08:00.589Z,33.6
2023-05-08T07:09:00.674Z,32.5
2023-05-08T07:10:00.682Z,33.2
2023-05-08T07:11:00.631Z,33.8
2023-05-08T07:12:00.581Z,34.3
2023-05-08T07:13:00.590Z,33.8
2023-05-08T07:14:00.576Z,34.4
2023-05-08T07:15:05.544Z,35.8
2023-05-08T07:16:00.777Z,35.4
2023-05-08T07:17:02.302Z,36.1
2023-05-08T07:18:00.674Z,36.8
2023-05-08T07:19:00.644Z,37.4
2023-05-08T07:20:00.601Z,37.3
2023-05-08T07:21:00.582Z,37.6
2023-05-08T07:22:00.619Z,36.7
2023-05-08T07:23:00.684Z,35.7
2023-05-08T07:24:00.597Z,36.2
2023-05-08T07:25:00.628Z,35.8
2023-05-08T07:26:00.905Z,35.8
2023-05-08T07:27:00.588Z,36.1
2023-05-08T07:28:01.470Z,36.7
2023-05-08T07:29:00.575Z,36.2
2023-05-08T07:30:00.579Z,35.9
2023-05-08T07:31:03.677Z,35.7
2023-05-08T07:32:00.981Z,34.3
2023-05-08T07:33:00.647Z,34.7
2023-05-08T07:34:00.588Z,34.7
2023-05-08T07:35:01.976Z,34.5
2023-05-08T07:36:00.567Z,34.4
2023-05-08T07:37:00.626Z,33.9
2023-05-08T07:38:00.624Z,33.4
2023-05-08T07:39:00.602Z,32.7
2023-05-08T07:40:00.601Z,32.6
2023-05-08T07:41:00.615Z,33.3
2023-05-08T07:42:00.630Z,33.1
2023-05-08T07:43:00.588Z,32.6
2023-05-08T07:44:00.577Z,31.3
2023-05-08T07:45:00.575Z,31.4
2023-05-08T07:46:00.633Z,31.1
2023-05-08T07:47:00.615Z,31.4
2023-05-08T07:48:00.731Z,32.4
2023-05-08T07:49:00.575Z,31.9
2023-05-08T07:50:00.991Z,31.8
2023-05-08T07:51:00.589Z,31.2
2023-05-08T07:52:00.572Z,30.1
2023-05-08T07:53:00.711Z,30.9
2023-05-08T07:54:00.606Z,30.7
2023-05-08T07:55:00.633Z,30.7
2023-05-08T07:56:00.557Z,30.8
2023-05-08T07:57:00.590Z,30.5
2023-05-08T07:58:00.564Z,29.4
2023-05-08T07:59:00.610Z,29.7
2023-05-08T08:00:00.945Z,30.0
2023-05-08T08:01:00.576Z,29.6
2023-05-08T08:02:00.590Z,29.3
2023-05-08T08:03:00.680Z,29.2
2023-05-08T08:04:00.757Z,29.2
2023-05-08T08:05:00.570Z,28.8
2023-05-08T08:06:00.580Z,27.5
2023-05-08T08:07:01.644Z,27.0
2023-05-08T08:08:00.542Z,27.4
2023-05-08T08:09:00.534Z,28.0
2023-05-08T08:10:01.104Z,28.2
2023-05-08T08:11:02.269Z,28.4
2023-05-08T08:12:00.545Z,28.9
2023-05-08T08:13:00.675Z,28.9
2023-05-08T08:14:00.569Z,29.3
2023-05-08T08:15:00.891Z,29.8
2023-05-08T08:16:00.724Z,29.8
2023-05-08T08:17:00.618Z,29.1
2023-05-08T08:18:00.571Z,29.1
2023-05-08T08:19:00.527Z,29.4
2023-05-08T08:20:00.519Z,29.1
2023-05-08T08:21:00.795Z,30.1
2023-05-08T08:22:00.539Z,30.1
2023-05-08T08:23:00.602Z,30.6
2023-05-08T08:24:00.561Z,30.2
2023-05-08T08:25:00.626Z,30.4
2023-05-08T08:26:00.618Z,30.0
2023-05-08T08:27:01.505Z,29.8
2023-05-08T08:28:00.551Z,30.0
2023-05-08T08:29:00.582Z,30.3
2023-05-08T08:30:15.679Z,30.6
2023-05-08T08:31:00.613Z,30.6
2023-05-08T08:32:00.656Z,30.0
2023-05-08T08:33:00.620Z,29.8
2023-05-08T08:34:00.567Z,29.7
2023-05-08T08:35:00.611Z,29.6
2023-05-08T08:36:00.575Z,29.2
2023-05-08T08:37:00.639Z,29.3
2023-05-08T08:38:00.551Z,28.7
2023-05-08T08:39:00.582Z,29.0
2023-05-08T08:40:00.570Z,29.1
2023-05-08T08:41:00.608Z,29.0
2023-05-08T08:42:00.947Z,29.2
2023-05-08T08:43:00.631Z,29.5
2023-05-08T08:44:00.692Z,29.8
2023-05-08T08:45:00.742Z,29.7
2023-05-08T08:46:02.115Z,29.6
2023-05-08T08:47:01.681Z,30.1
2023-05-08T08:48:01.463Z,30.0
2023-05-08T08:49:02.769Z,30.5
2023-05-08T08:50:02.089Z,30.4
2023-05-08T08:51:01.476Z,30.4
2023-05-08T08:52:02.215Z,29.8
2023-05-08T08:56:01.564Z,30.1
2023-05-08T08:57:04.107Z,29.7
2023-05-08T08:58:00.583Z,29.2
2023-05-08T08:59:00.980Z,29.1
2023-05-08T09:00:01.940Z,29.2
2023-05-08T09:01:01.894Z,28.9
2023-05-08T09:02:04.789Z,29.0
2023-05-08T09:03:00.978Z,28.9
2023-05-08T09:04:01.065Z,28.9
2023-05-08T09:05:01.718Z,29.0
2023-05-08T09:06:01.165Z,29.4
2023-05-08T09:07:00.957Z,28.3
2023-05-08T09:08:00.760Z,28.9
2023-05-08T09:09:00.999Z,29.2
2023-05-08T09:10:01.141Z,29.1
2023-05-08T09:11:01.160Z,29.0
2023-05-08T09:12:00.705Z,29.0
2023-05-08T09:13:00.763Z,29.0
2023-05-08T09:14:00.614Z,28.7
2023-05-08T09:15:00.645Z,28.9
2023-05-08T09:16:00.684Z,29.2
2023-05-08T09:17:00.844Z,28.5
2023-05-08T09:18:00.889Z,28.7
2023-05-08T09:19:01.282Z,28.4
2023-05-08T09:20:01.056Z,28.7
2023-05-08T09:21:00.739Z,28.5
2023-05-08T09:22:02.502Z,28.8
2023-05-08T09:23:00.684Z,28.5
2023-05-08T09:24:01.920Z,28.5
2023-05-08T09:25:00.694Z,28.3
2023-05-08T09:26:00.587Z,28.7
2023-05-08T09:27:00.564Z,28.5
2023-05-08T09:28:10.472Z,28.3
2023-05-08T09:29:08.765Z,28.9
2023-05-08T09:30:01.697Z,29.3
2023-05-08T09:31:00.595Z,29.2
2023-05-08T09:32:00.828Z,29.2
2023-05-08T09:33:00.973Z,29.3
2023-05-08T09:34:00.597Z,29.0
2023-05-08T09:35:01.233Z,29.0
2023-05-08T09:36:00.597Z,29.2
2023-05-08T09:37:03.940Z,28.5
2023-05-08T09:38:00.596Z,28.8
2023-05-08T09:39:01.396Z,28.7
2023-05-08T09:40:10.462Z,29.1
2023-05-08T09:41:10.465Z,29.5
2023-05-08T09:42:01.576Z,29.7
2023-05-08T09:43:10.471Z,29.5
2023-05-08T09:44:01.918Z,30.2
2023-05-08T09:45:00.587Z,30.5
2023-05-08T09:46:10.542Z,30.5
2023-05-08T09:47:10.465Z,29.9
2023-05-08T09:48:00.626Z,29.6
2023-05-08T09:49:01.598Z,30.0
2023-05-08T09:50:01.635Z,30.3
2023-05-08T09:51:05.169Z,30.2
2023-05-08T09:52:00.642Z,30.2
2023-05-08T09:53:00.593Z,30.6
2023-05-08T09:54:00.661Z,30.6
2023-05-08T09:55:01.842Z,31.1
2023-05-08T09:56:00.608Z,31.2
2023-05-08T09:57:09.906Z,31.3
2023-05-08T09:58:00.640Z,31.4
2023-05-08T09:59:02.708Z,31.7
2023-05-08T10:00:09.089Z,31.8
2023-05-08T10:01:00.676Z,32.0
2023-05-08T10:02:08.850Z,32.2
2023-05-08T10:03:01.411Z,32.4
2023-05-08T10:04:00.599Z,32.3
2023-05-08T10:05:00.737Z,32.6
2023-05-08T10:06:10.421Z,32.5
2023-05-08T10:08:10.429Z,32.2
2023-05-08T10:09:10.441Z,32.1
2023-05-08T10:10:02.786Z,32.0
2023-05-08T10:11:10.419Z,31.8
2023-05-08T10:12:00.585Z,31.7
2023-05-08T10:13:00.622Z,32.0
2023-05-08T10:14:00.613Z,31.7
2023-05-08T10:15:00.581Z,31.8
2023-05-08T10:16:00.762Z,31.5
2023-05-08T10:17:06.565Z,31.4
2023-05-08T10:18:03.226Z,31.5
2023-05-08T10:19:03.553Z,31.7
2023-05-08T10:20:05.137Z,31.6
2023-05-08T10:21:05.369Z,31.7
2023-05-08T10:22:02.536Z,31.5
2023-05-08T10:23:01.760Z,31.9
2023-05-08T10:24:03.851Z,32.5
2023-05-08T10:25:01.647Z,32.5
2023-05-08T10:26:10.482Z,32.7
2023-05-08T10:28:00.534Z,32.1
2023-05-08T10:29:05.994Z,32.1
2023-05-08T10:30:01.434Z,32.4
2023-05-08T10:31:02.005Z,32.9
2023-05-08T10:32:01.756Z,33.0
2023-05-08T10:33:02.250Z,33.1
2023-05-08T10:34:01.591Z,33.5
2023-05-08T10:35:02.281Z,33.7
2023-05-08T10:36:00.689Z,34.1
2023-05-08T10:37:00.704Z,33.8
2023-05-08T10:38:01.350Z,34.0
2023-05-08T10:39:00.970Z,34.0
2023-05-08T10:40:01.566Z,33.7
2023-05-08T10:41:00.685Z,33.5
2023-05-08T10:42:00.855Z,33.9
2023-05-08T10:43:01.275Z,34.0
2023-05-08T10:44:03.144Z,34.1
2023-05-08T10:45:01.759Z,33.9
2023-05-08T10:46:04.529Z,33.2
2023-05-08T10:47:05.087Z,32.7
2023-05-08T10:48:00.656Z,32.8
2023-05-08T10:49:10.432Z,33.4
2023-05-08T10:50:04.050Z,33.0
2023-05-08T10:51:00.567Z,32.4
2023-05-08T10:52:08.741Z,32.1
2023-05-08T10:53:10.468Z,32.8
2023-05-08T10:54:05.417Z,32.6
2023-05-08T10:55:08.527Z,32.7
2023-05-08T10:56:00.682Z,32.0
2023-05-08T10:57:10.619Z,32.4
2023-05-08T10:58:01.094Z,33.0
2023-05-08T10:59:00.638Z,33.1
2023-05-08T11:00:00.617Z,32.9
2023-05-08T11:01:00.560Z,32.6
2023-05-08T11:02:07.810Z,32.1
2023-05-08T11:03:04.422Z,32.1
2023-05-08T11:04:00.750Z,32.8
2023-05-08T11:05:10.454Z,32.2
2023-05-08T11:06:00.564Z,32.4
2023-05-08T11:07:00.678Z,32.2
2023-05-08T11:08:00.601Z,32.2
2023-05-08T11:09:01.087Z,31.8
2023-05-08T11:10:06.164Z,31.3
2023-05-08T11:11:04.712Z,32.5
2023-05-08T11:12:00.550Z,32.3
2023-05-08T11:13:00.706Z,32.7
2023-05-08T11:14:01.650Z,33.0
2023-05-08T11:15:02.261Z,33.7
2023-05-08T11:16:01.052Z,32.9
2023-05-08T11:17:00.582Z,32.2
2023-05-08T11:18:02.741Z,32.6
2023-05-08T11:19:10.425Z,32.1
2023-05-08T11:20:01.831Z,31.1
2023-05-08T11:21:01.875Z,31.4
2023-05-08T11:22:10.483Z,30.3
2023-05-08T11:23:10.450Z,30.5
2023-05-08T11:24:08.832Z,30.9
2023-05-08T11:25:05.451Z,30.7
2023-05-08T11:26:01.989Z,30.1
2023-05-08T11:27:00.556Z,30.2
2023-05-08T11:28:10.309Z,30.2
2023-05-08T11:29:00.558Z,29.7
2023-05-08T11:30:10.615Z,29.7
2023-05-08T11:31:02.375Z,28.9
2023-05-08T11:32:00.725Z,29.0
2023-05-08T11:33:04.239Z,29.3
2023-05-08T11:34:00.579Z,29.3
2023-05-08T11:35:00.597Z,28.6
2023-05-08T11:36:10.465Z,29.2
2023-05-08T11:37:00.682Z,29.0
2023-05-08T11:38:10.415Z,29.3
2023-05-08T11:39:09.000Z,29.0
2023-05-08T11:40:10.516Z,29.4
2023-05-08T11:41:00.534Z,29.8
2023-05-08T11:42:10.452Z,30.2
2023-05-08T11:43:10.443Z,29.9
2023-05-08T11:44:00.540Z,30.5
2023-05-08T11:45:03.954Z,30.5
2023-05-08T11:46:01.561Z,30.4
2023-05-08T11:47:02.389Z,30.7
2023-05-08T11:48:00.627Z,30.9
2023-05-08T11:49:00.655Z,30.9
2023-05-08T11:50:01.116Z,31.0
2023-05-08T11:51:01.421Z,30.8
2023-05-08T11:52:01.014Z,30.4
2023-05-08T11:53:00.649Z,30.2
2023-05-08T11:54:00.612Z,30.3
2023-05-08T11:55:04.845Z,30.2
2023-05-08T11:56:00.952Z,30.1
2023-05-08T11:57:00.564Z,29.7
2023-05-08T11:58:00.561Z,29.9
2023-05-08T11:59:01.299Z,30.4
2023-05-08T12:00:08.824Z,30.4
2023-05-08T12:01:00.630Z,30.5
2023-05-08T12:02:08.520Z,30.7
2023-05-08T12:03:05.710Z,30.2
2023-05-08T12:04:00.795Z,29.4
2023-05-08T12:05:00.706Z,29.6
2023-05-08T12:06:00.590Z,29.4
2023-05-08T12:07:00.577Z,28.9
2023-05-08T12:08:00.563Z,28.2
2023-05-08T12:09:01.116Z,27.8
2023-05-08T12:10:01.749Z,28.4
2023-05-08T12:11:00.641Z,28.6
2023-05-08T12:12:00.549Z,28.6
2023-05-08T12:13:00.676Z,28.8
2023-05-08T12:14:00.605Z,28.7
2023-05-08T12:15:00.625Z,28.8
2023-05-08T12:16:00.606Z,28.6
2023-05-08T12:17:01.437Z,28.5
2023-05-08T12:18:00.675Z,28.3
2023-05-08T12:19:00.544Z,28.4
2023-05-08T12:20:08.461Z,28.4
2023-05-08T12:21:00.756Z,28.2
2023-05-08T12:22:00.638Z,28.3
2023-05-08T12:23:01.737Z,28.1
2023-05-08T12:24:04.066Z,27.9
2023-05-08T12:25:02.153Z,28.4
2023-05-08T12:26:01.085Z,28.5
2023-05-08T12:27:00.622Z,28.1
2023-05-08T12:28:00.570Z,28.5
2023-05-08T12:29:00.545Z,28.8
2023-05-08T12:30:04.064Z,29.0
2023-05-08T12:31:00.967Z,29.5
2023-05-08T12:32:00.621Z,30.0
2023-05-08T12:33:00.839Z,30.6
2023-05-08T12:34:01.929Z,31.9
2023-05-08T12:35:00.672Z,31.5
2023-05-08T12:36:00.909Z,34.2
2023-05-08T12:37:01.513Z,33.3
2023-05-08T12:38:02.280Z,32.8
2023-05-08T12:39:10.229Z,32.5
2023-05-08T12:40:00.576Z,33.9
2023-05-08T12:41:01.354Z,35.1
2023-05-08T12:42:01.155Z,36.8
2023-05-08T12:43:01.654Z,37.8
2023-05-08T12:44:00.631Z,37.5
2023-05-08T12:45:00.592Z,36.5
2023-05-08T12:46:01.036Z,36.1
2023-05-08T12:47:00.637Z,34.9
2023-05-08T12:48:03.145Z,35.0
2023-05-08T12:49:01.029Z,35.5
2023-05-08T12:50:00.577Z,34.2
2023-05-08T12:51:02.212Z,33.3
2023-05-08T12:52:10.450Z,33.6
2023-05-08T12:53:01.512Z,32.4
2023-05-08T12:54:00.587Z,32.1
2023-05-08T12:55:00.629Z,32.4
2023-05-08T12:56:01.848Z,32.3
2023-05-08T12:57:00.593Z,31.8
2023-05-08T12:58:05.846Z,32.5
2023-05-08T12:59:00.624Z,32.1
2023-05-08T13:00:04.454Z,32.6
2023-05-08T13:01:08.770Z,32.6
2023-05-08T13:02:00.590Z,32.8
2023-05-08T13:03:00.624Z,32.7
2023-05-08T13:04:02.494Z,32.2
2023-05-08T13:05:00.592Z,31.9
2023-05-08T13:06:00.747Z,31.6
2023-05-08T13:07:00.594Z,30.3
2023-05-08T13:08:01.292Z,30.4
2023-05-08T13:09:00.639Z,30.4
2023-05-08T13:10:01.215Z,32.3
2023-05-08T13:11:01.396Z,34.2
2023-05-08T13:12:00.917Z,35.2
2023-05-08T13:13:00.555Z,35.1
2023-05-08T13:14:00.594Z,35.1
2023-05-08T13:15:00.594Z,35.1
2023-05-08T13:16:01.744Z,36.4
2023-05-08T13:17:00.735Z,37.5
2023-05-08T13:18:03.596Z,39.0
2023-05-08T13:19:00.599Z,39.7
2023-05-08T13:20:00.812Z,39.0
2023-05-08T13:21:00.756Z,38.8
2023-05-08T13:22:00.647Z,38.5
2023-05-08T13:23:00.797Z,37.8